createdAt,value
2018-09-20T00:00:28.853Z,24.03
2018-09-20T00:01:00.902Z,24.04
2018-09-20T00:01:32.961Z,24.09
2018-09-20T00:02:05.028Z,24.09
2018-09-20T00:02:37.076Z,24.04
2018-09-20T00:03:09.074Z,24
2018-09-20T00:03:41.141Z,24.02
2018-09-20T00:04:13.180Z,24
2018-09-20T00:04:45.229Z,24.08
2018-09-20T00:05:17.265Z,23.99
2018-09-20T00:05:49.339Z,23.97
2018-09-20T00:06:21.493Z,24.03
2018-09-20T00:06:53.553Z,23.99
2018-09-20T00:07:25.604Z,24.02
2018-09-20T00:07:57.698Z,24
2018-09-20T00:08:29.789Z,23.97
2018-09-20T00:09:01.813Z,23.97
2018-09-20T00:09:33.913Z,24.03
2018-09-20T00:10:05.955Z,23.97
2018-09-20T00:10:38.003Z,23.94
2018-09-20T00:11:10.100Z,23.93
2018-09-20T00:11:42.179Z,24.02
2018-09-20T00:12:14.319Z,23.96
2018-09-20T00:12:46.383Z,23.93
2018-09-20T00:13:18.495Z,23.94
2018-09-20T00:13:50.535Z,23.94
2018-09-20T00:14:22.602Z,23.99
2018-09-20T00:14:54.668Z,23.92
2018-09-20T00:15:26.651Z,23.96
2018-09-20T00:15:58.744Z,23.93
2018-09-20T00:16:30.802Z,23.93
2018-09-20T00:17:02.820Z,23.99
2018-09-20T00:17:34.920Z,23.94
2018-09-20T00:18:06.972Z,23.93
2018-09-20T00:18:39.003Z,24
2018-09-20T00:19:11.145Z,23.97
2018-09-20T00:19:43.200Z,23.96
2018-09-20T00:20:15.323Z,23.92
2018-09-20T00:20:47.396Z,23.99
2018-09-20T00:21:19.455Z,24.03
2018-09-20T00:21:51.515Z,23.96
2018-09-20T00:22:23.576Z,23.99
2018-09-20T00:22:55.651Z,23.9
2018-09-20T00:23:27.744Z,23.99
2018-09-20T00:23:59.838Z,23.93
2018-09-20T00:24:31.912Z,23.89
2018-09-20T00:25:04.073Z,23.92
2018-09-20T00:25:36.156Z,23.9
2018-09-20T00:26:08.251Z,23.9
2018-09-20T00:26:40.274Z,23.92
2018-09-20T00:27:12.342Z,23.92
2018-09-20T00:27:44.387Z,23.87
2018-09-20T00:28:16.429Z,23.9
2018-09-20T00:28:48.497Z,23.93
2018-09-20T00:29:20.536Z,23.9
2018-09-20T00:29:52.609Z,23.93
2018-09-20T00:30:24.658Z,23.96
2018-09-20T00:30:56.700Z,23.96
2018-09-20T00:31:28.754Z,23.9
2018-09-20T00:32:00.813Z,23.9
2018-09-20T00:32:32.842Z,23.9
2018-09-20T00:33:04.892Z,23.87
2018-09-20T00:33:36.915Z,23.9
2018-09-20T00:34:08.956Z,23.93
2018-09-20T00:34:41.024Z,23.89
2018-09-20T00:35:13.118Z,23.89
2018-09-20T00:35:45.169Z,23.93
2018-09-20T00:36:17.223Z,23.89
2018-09-20T00:36:49.319Z,23.77
2018-09-20T00:37:21.421Z,23.82
2018-09-20T00:37:53.643Z,23.92
2018-09-20T00:38:25.765Z,23.84
2018-09-20T00:38:57.893Z,23.9
2018-09-20T00:39:29.963Z,23.81
2018-09-20T00:40:02.050Z,23.84
2018-09-20T00:40:34.128Z,23.81
2018-09-20T00:41:06.202Z,23.84
2018-09-20T00:41:38.260Z,23.82
2018-09-20T00:42:10.280Z,23.77
2018-09-20T00:42:42.350Z,23.75
2018-09-20T00:43:14.425Z,23.81
2018-09-20T00:43:46.490Z,23.81
2018-09-20T00:44:18.534Z,23.84
2018-09-20T00:44:50.602Z,23.81
2018-09-20T00:45:22.614Z,23.81
2018-09-20T00:45:54.654Z,23.85
2018-09-20T00:46:26.724Z,23.81
2018-09-20T00:46:58.748Z,23.82
2018-09-20T00:47:30.790Z,23.82
2018-09-20T00:48:02.942Z,23.84
2018-09-20T00:48:35.027Z,23.85
2018-09-20T00:49:07.071Z,23.75
2018-09-20T00:49:39.134Z,23.84
2018-09-20T00:50:11.207Z,23.82
2018-09-20T00:50:43.254Z,23.74
2018-09-20T00:51:15.334Z,23.84
2018-09-20T00:51:47.411Z,23.82
2018-09-20T00:52:19.486Z,23.81
2018-09-20T00:52:51.539Z,23.74
2018-09-20T00:53:23.655Z,23.75
2018-09-20T00:53:55.843Z,23.82
2018-09-20T00:54:28.333Z,23.77
2018-09-20T00:55:00.377Z,23.77
2018-09-20T00:55:32.476Z,23.75
2018-09-20T00:56:04.531Z,23.78
2018-09-20T00:56:36.602Z,23.75
2018-09-20T00:57:08.683Z,23.78
2018-09-20T00:57:40.707Z,23.78
2018-09-20T00:58:12.779Z,23.74
2018-09-20T00:58:44.877Z,23.79
2018-09-20T00:59:16.884Z,23.79
2018-09-20T00:59:48.958Z,23.72
2018-09-20T01:00:21.057Z,23.79
2018-09-20T01:00:53.222Z,23.75
2018-09-20T01:01:25.244Z,23.74
2018-09-20T01:01:57.283Z,23.71
2018-09-20T01:02:29.316Z,23.75
2018-09-20T01:03:01.441Z,23.78
2018-09-20T01:03:33.569Z,23.7
2018-09-20T01:04:05.630Z,23.71
2018-09-20T01:04:37.716Z,23.74
2018-09-20T01:05:09.816Z,23.71
2018-09-20T01:05:41.899Z,23.7
2018-09-20T01:06:13.951Z,23.71
2018-09-20T01:06:46.051Z,23.72
2018-09-20T01:07:18.107Z,23.72
2018-09-20T01:07:50.188Z,23.71
2018-09-20T01:08:22.266Z,23.7
2018-09-20T01:08:54.304Z,23.71
2018-09-20T01:09:26.315Z,23.67
2018-09-20T01:09:58.366Z,23.71
2018-09-20T01:10:30.463Z,23.71
2018-09-20T01:11:02.530Z,23.7
2018-09-20T01:11:34.592Z,23.72
2018-09-20T01:12:06.772Z,23.71
2018-09-20T01:12:38.868Z,23.62
2018-09-20T01:13:10.924Z,23.7
2018-09-20T01:13:43.008Z,23.66
2018-09-20T01:14:15.079Z,23.67
2018-09-20T01:14:47.092Z,23.72
2018-09-20T01:15:19.121Z,23.77
2018-09-20T01:15:51.208Z,23.7
2018-09-20T01:16:23.277Z,23.71
2018-09-20T01:16:55.310Z,23.67
2018-09-20T01:17:27.401Z,23.72
2018-09-20T01:17:59.474Z,23.72
2018-09-20T01:18:31.550Z,23.67
2018-09-20T01:19:03.627Z,23.67
2018-09-20T01:19:35.790Z,23.62
2018-09-20T01:20:07.962Z,23.67
2018-09-20T01:20:39.999Z,23.66
2018-09-20T01:21:12.042Z,23.72
2018-09-20T01:21:44.112Z,23.67
2018-09-20T01:22:16.164Z,23.67
2018-09-20T01:22:48.213Z,23.7
2018-09-20T01:23:20.279Z,23.64
2018-09-20T01:23:52.324Z,23.7
2018-09-20T01:24:24.496Z,23.63
2018-09-20T01:24:56.600Z,23.64
2018-09-20T01:25:28.652Z,23.63
2018-09-20T01:26:00.717Z,23.62
2018-09-20T01:26:32.788Z,23.62
2018-09-20T01:27:04.863Z,23.67
2018-09-20T01:27:36.945Z,23.66
2018-09-20T01:28:09.005Z,23.71
2018-09-20T01:28:41.085Z,23.66
2018-09-20T01:29:13.115Z,23.57
2018-09-20T01:29:45.172Z,23.67
2018-09-20T01:30:17.228Z,23.59
2018-09-20T01:30:49.353Z,23.56
2018-09-20T01:31:21.425Z,23.63
2018-09-20T01:31:53.575Z,23.57
2018-09-20T01:32:25.638Z,23.62
2018-09-20T01:32:57.683Z,23.57
2018-09-20T01:33:29.737Z,23.62
2018-09-20T01:34:01.905Z,23.62
2018-09-20T01:34:34.049Z,23.57
2018-09-20T01:35:06.095Z,23.6
2018-09-20T01:35:38.157Z,23.55
2018-09-20T01:36:10.204Z,23.56
2018-09-20T01:36:42.274Z,23.59
2018-09-20T01:37:14.369Z,23.6
2018-09-20T01:37:46.422Z,23.55
2018-09-20T01:38:18.579Z,23.59
2018-09-20T01:38:50.740Z,23.57
2018-09-20T01:39:22.805Z,23.56
2018-09-20T01:39:54.931Z,23.6
2018-09-20T01:40:26.997Z,23.53
2018-09-20T01:40:59.050Z,23.59
2018-09-20T01:41:31.113Z,23.56
2018-09-20T01:42:03.267Z,23.57
2018-09-20T01:42:35.286Z,23.6
2018-09-20T01:43:07.358Z,23.56
2018-09-20T01:43:39.423Z,23.52
2018-09-20T01:44:11.498Z,23.57
2018-09-20T01:44:43.577Z,23.59
2018-09-20T01:45:15.647Z,23.52
2018-09-20T01:45:47.695Z,23.52
2018-09-20T01:46:19.770Z,23.48
2018-09-20T01:46:51.873Z,23.59
2018-09-20T01:47:23.936Z,23.56
2018-09-20T01:47:56.021Z,23.47
2018-09-20T01:48:28.040Z,23.5
2018-09-20T01:49:00.832Z,23.5
2018-09-20T01:49:32.937Z,23.63
2018-09-20T01:50:05.077Z,23.53
2018-09-20T01:50:37.102Z,23.53
2018-09-20T01:51:09.193Z,23.57
2018-09-20T01:51:41.265Z,23.55
2018-09-20T01:52:13.313Z,23.56
2018-09-20T01:52:45.543Z,23.53
2018-09-20T01:53:17.611Z,23.5
2018-09-20T01:53:49.733Z,23.47
2018-09-20T01:54:21.764Z,23.55
2018-09-20T01:54:53.864Z,23.59
2018-09-20T01:55:25.914Z,23.59
2018-09-20T01:55:57.958Z,23.5
2018-09-20T01:56:29.982Z,23.44
2018-09-20T01:57:02.044Z,23.44
2018-09-20T01:57:34.131Z,23.48
2018-09-20T01:58:06.148Z,23.56
2018-09-20T01:58:38.214Z,23.47
2018-09-20T01:59:10.276Z,23.44
2018-09-20T01:59:42.405Z,23.52
2018-09-20T02:00:14.423Z,23.53
2018-09-20T02:00:46.492Z,23.47
2018-09-20T02:01:18.675Z,23.47
2018-09-20T02:01:50.737Z,23.47
2018-09-20T02:02:22.804Z,23.47
2018-09-20T02:02:54.871Z,23.42
2018-09-20T02:03:26.922Z,23.47
2018-09-20T02:03:58.971Z,23.5
2018-09-20T02:04:31.184Z,23.42
2018-09-20T02:05:03.197Z,23.5
2018-09-20T02:05:35.268Z,23.45
2018-09-20T02:06:07.344Z,23.42
2018-09-20T02:06:39.416Z,23.48
2018-09-20T02:07:11.554Z,23.47
2018-09-20T02:07:43.737Z,23.41
2018-09-20T02:08:15.793Z,23.42
2018-09-20T02:08:47.870Z,23.44
2018-09-20T02:09:19.925Z,23.42
2018-09-20T02:09:51.976Z,23.47
2018-09-20T02:10:23.995Z,23.44
2018-09-20T02:10:56.048Z,23.41
2018-09-20T02:11:28.114Z,23.47
2018-09-20T02:12:00.210Z,23.4
2018-09-20T02:12:32.360Z,23.41
2018-09-20T02:13:04.444Z,23.42
2018-09-20T02:13:36.532Z,23.42
2018-09-20T02:14:08.553Z,23.45
2018-09-20T02:14:40.636Z,23.44
2018-09-20T02:15:12.716Z,23.41
2018-09-20T02:15:44.796Z,23.45
2018-09-20T02:16:16.864Z,23.45
2018-09-20T02:16:48.906Z,23.35
2018-09-20T02:17:20.942Z,23.34
2018-09-20T02:17:53.017Z,23.4
2018-09-20T02:18:25.097Z,23.4
2018-09-20T02:18:57.166Z,23.41
2018-09-20T02:19:29.206Z,23.34
2018-09-20T02:20:01.251Z,23.37
2018-09-20T02:20:33.300Z,23.42
2018-09-20T02:21:05.461Z,23.38
2018-09-20T02:21:37.537Z,23.28
2018-09-20T02:22:09.570Z,23.4
2018-09-20T02:22:41.641Z,23.42
2018-09-20T02:23:13.732Z,23.35
2018-09-20T02:23:45.789Z,23.4
2018-09-20T02:24:17.924Z,23.4
2018-09-20T02:24:50.097Z,23.4
2018-09-20T02:25:22.179Z,23.35
2018-09-20T02:25:54.218Z,23.4
2018-09-20T02:26:26.245Z,23.4
2018-09-20T02:26:58.328Z,23.35
2018-09-20T02:27:30.372Z,23.37
2018-09-20T02:28:02.420Z,23.4
2018-09-20T02:28:34.437Z,23.41
2018-09-20T02:29:06.514Z,23.4
2018-09-20T02:29:38.608Z,23.4
2018-09-20T02:30:10.817Z,23.38
2018-09-20T02:30:43.780Z,23.38
2018-09-20T02:31:15.888Z,23.35
2018-09-20T02:31:47.937Z,23.35
2018-09-20T02:32:19.954Z,23.4
2018-09-20T02:32:52.032Z,23.4
2018-09-20T02:33:24.037Z,23.37
2018-09-20T02:33:56.098Z,23.37
2018-09-20T02:34:28.247Z,23.34
2018-09-20T02:35:00.339Z,23.4
2018-09-20T02:35:32.382Z,23.4
2018-09-20T02:36:04.466Z,23.38
2018-09-20T02:36:36.535Z,23.44
2018-09-20T02:37:08.613Z,23.37
2018-09-20T02:37:40.673Z,23.37
2018-09-20T02:38:12.763Z,23.37
2018-09-20T02:38:44.870Z,23.35
2018-09-20T02:39:16.944Z,23.38
2018-09-20T02:39:49.049Z,23.38
2018-09-20T02:40:21.136Z,23.4
2018-09-20T02:40:53.204Z,23.37
2018-09-20T02:41:25.310Z,23.41
2018-09-20T02:41:57.373Z,23.45
2018-09-20T02:42:29.413Z,23.37
2018-09-20T02:43:01.497Z,23.4
2018-09-20T02:43:33.654Z,23.4
2018-09-20T02:44:05.732Z,23.44
2018-09-20T02:44:37.786Z,23.41
2018-09-20T02:45:09.848Z,23.42
2018-09-20T02:45:41.932Z,23.4
2018-09-20T02:46:14.006Z,23.37
2018-09-20T02:46:46.078Z,23.28
2018-09-20T02:47:18.120Z,23.38
2018-09-20T02:47:50.165Z,23.35
2018-09-20T02:48:22.236Z,23.35
2018-09-20T02:48:54.266Z,23.38
2018-09-20T02:49:26.346Z,23.37
2018-09-20T02:49:58.436Z,23.28
2018-09-20T02:50:30.499Z,23.38
2018-09-20T02:51:02.573Z,23.37
2018-09-20T02:51:34.639Z,23.25
2018-09-20T02:52:06.722Z,23.35
2018-09-20T02:52:38.792Z,23.37
2018-09-20T02:53:10.817Z,23.37
2018-09-20T02:53:42.864Z,23.19
2018-09-20T02:54:15.018Z,23.35
2018-09-20T02:54:47.166Z,23.29
2018-09-20T02:55:19.254Z,23.32
2018-09-20T02:55:51.321Z,23.28
2018-09-20T02:56:23.413Z,23.22
2018-09-20T02:56:55.507Z,23.29
2018-09-20T02:57:27.536Z,23.26
2018-09-20T02:57:59.691Z,23.29
2018-09-20T02:58:31.754Z,23.24
2018-09-20T02:59:03.816Z,23.29
2018-09-20T02:59:35.881Z,23.25
2018-09-20T03:00:08.002Z,23.22
2018-09-20T03:00:40.073Z,23.18
2018-09-20T03:01:12.168Z,23.32
2018-09-20T03:01:44.238Z,23.28
2018-09-20T03:02:16.264Z,23.16
2018-09-20T03:02:48.349Z,23.22
2018-09-20T03:03:20.396Z,23.18
2018-09-20T03:03:52.469Z,23.26
2018-09-20T03:04:24.533Z,23.26
2018-09-20T03:04:56.628Z,23.28
2018-09-20T03:05:28.657Z,23.28
2018-09-20T03:06:00.677Z,23.24
2018-09-20T03:06:32.763Z,23.22
2018-09-20T03:07:04.784Z,23.21
2018-09-20T03:07:36.928Z,23.22
2018-09-20T03:08:09.014Z,23.26
2018-09-20T03:08:41.632Z,23.24
2018-09-20T03:09:13.661Z,23.35
2018-09-20T03:09:45.746Z,23.26
2018-09-20T03:10:17.805Z,23.28
2018-09-20T03:10:49.877Z,23.22
2018-09-20T03:11:21.998Z,23.22
2018-09-20T03:11:54.059Z,23.24
2018-09-20T03:12:26.069Z,23.26
2018-09-20T03:12:58.108Z,23.24
2018-09-20T03:13:30.108Z,23.24
2018-09-20T03:14:02.163Z,23.24
2018-09-20T03:14:34.208Z,23.29
2018-09-20T03:15:06.246Z,23.25
2018-09-20T03:15:38.297Z,23.24
2018-09-20T03:16:10.330Z,23.21
2018-09-20T03:16:42.396Z,23.25
2018-09-20T03:17:14.461Z,23.24
2018-09-20T03:17:46.523Z,23.18
2018-09-20T03:18:18.653Z,23.22
2018-09-20T03:18:50.715Z,23.22
2018-09-20T03:19:22.791Z,23.25
2018-09-20T03:19:54.823Z,23.26
2018-09-20T03:20:26.866Z,23.24
2018-09-20T03:20:58.946Z,23.21
2018-09-20T03:21:31.003Z,23.16
2018-09-20T03:22:03.073Z,23.16
2018-09-20T03:22:35.141Z,23.25
2018-09-20T03:23:07.215Z,23.22
2018-09-20T03:23:39.313Z,23.22
2018-09-20T03:24:11.521Z,23.22
2018-09-20T03:24:43.566Z,23.21
2018-09-20T03:25:15.620Z,23.25
2018-09-20T03:25:47.686Z,23.26
2018-09-20T03:26:19.769Z,23.19
2018-09-20T03:26:51.918Z,23.21
2018-09-20T03:27:24.150Z,23.22
2018-09-20T03:27:56.223Z,23.26
2018-09-20T03:28:28.284Z,23.18
2018-09-20T03:29:00.301Z,23.22
2018-09-20T03:29:32.365Z,23.22
2018-09-20T03:30:04.377Z,23.18
2018-09-20T03:30:36.595Z,23.18
2018-09-20T03:31:08.543Z,23.16
2018-09-20T03:31:40.610Z,23.21
2018-09-20T03:32:12.701Z,23.21
2018-09-20T03:32:44.783Z,23.15
2018-09-20T03:33:16.945Z,23.22
2018-09-20T03:33:49.029Z,23.18
2018-09-20T03:34:21.127Z,23.18
2018-09-20T03:34:53.281Z,23.15
2018-09-20T03:35:25.346Z,23.14
2018-09-20T03:35:57.392Z,23.21
2018-09-20T03:36:29.476Z,23.16
2018-09-20T03:37:01.516Z,23.15
2018-09-20T03:37:33.571Z,23.21
2018-09-20T03:38:05.648Z,23.16
2018-09-20T03:38:37.704Z,23.12
2018-09-20T03:39:09.751Z,23.16
2018-09-20T03:39:42.394Z,23.14
2018-09-20T03:40:14.460Z,23.16
2018-09-20T03:40:46.531Z,23.04
2018-09-20T03:41:18.693Z,23.04
2018-09-20T03:41:50.704Z,23.09
2018-09-20T03:42:22.822Z,23.15
2018-09-20T03:42:54.866Z,23.18
2018-09-20T03:43:26.903Z,23.12
2018-09-20T03:43:58.934Z,23.09
2018-09-20T03:44:31.009Z,23.09
2018-09-20T03:45:03.093Z,23.14
2018-09-20T03:45:35.150Z,23.1
2018-09-20T03:46:07.260Z,23.06
2018-09-20T03:46:39.344Z,23.09
2018-09-20T03:47:11.401Z,23.1
2018-09-20T03:47:43.451Z,23.1
2018-09-20T03:48:15.512Z,23.07
2018-09-20T03:48:47.588Z,23.09
2018-09-20T03:49:19.605Z,23.16
2018-09-20T03:49:51.606Z,23.06
2018-09-20T03:50:23.690Z,23.07
2018-09-20T03:50:55.774Z,23.07
2018-09-20T03:51:27.848Z,23.06
2018-09-20T03:51:59.902Z,23.04
2018-09-20T03:52:31.972Z,23.04
2018-09-20T03:53:04.117Z,23.07
2018-09-20T03:53:36.193Z,23.12
2018-09-20T03:54:08.264Z,23.09
2018-09-20T03:54:40.255Z,23.07
2018-09-20T03:55:12.285Z,23.06
2018-09-20T03:55:44.344Z,23.07
2018-09-20T03:56:16.417Z,23.07
2018-09-20T03:56:48.528Z,23.04
2018-09-20T03:57:20.597Z,23.07
2018-09-20T03:57:52.624Z,23.1
2018-09-20T03:58:24.684Z,23.07
2018-09-20T03:58:56.747Z,23.1
2018-09-20T03:59:28.865Z,23.07
2018-09-20T04:00:00.919Z,23.06
2018-09-20T04:00:32.998Z,23.14
2018-09-20T04:01:05.086Z,23.1
2018-09-20T04:01:37.267Z,23.07
2018-09-20T04:02:09.346Z,23.16
2018-09-20T04:02:41.427Z,23.09
2018-09-20T04:03:13.501Z,23.04
2018-09-20T04:03:45.551Z,23.06
2018-09-20T04:04:17.671Z,23.07
2018-09-20T04:04:49.726Z,23.01
2018-09-20T04:05:21.801Z,23.09
2018-09-20T04:05:53.873Z,23.04
2018-09-20T04:06:25.901Z,23.03
2018-09-20T04:06:57.953Z,23.09
2018-09-20T04:07:30.114Z,23.12
2018-09-20T04:08:02.182Z,23.15
2018-09-20T04:08:34.271Z,23.09
2018-09-20T04:09:06.355Z,23.03
2018-09-20T04:09:38.555Z,23.09
2018-09-20T04:10:10.679Z,23.06
2018-09-20T04:10:42.784Z,23.09
2018-09-20T04:11:14.817Z,23.03
2018-09-20T04:11:46.830Z,23.14
2018-09-20T04:12:18.902Z,23.01
2018-09-20T04:12:50.962Z,23.15
2018-09-20T04:13:23.031Z,23.09
2018-09-20T04:13:55.097Z,23.03
2018-09-20T04:14:27.241Z,23.07
2018-09-20T04:14:59.408Z,23
2018-09-20T04:15:31.587Z,23.1
2018-09-20T04:16:03.659Z,23.06
2018-09-20T04:16:35.692Z,23.1
2018-09-20T04:17:07.737Z,23.03
2018-09-20T04:17:39.744Z,23.14
2018-09-20T04:18:11.867Z,23.06
2018-09-20T04:18:43.911Z,23.09
2018-09-20T04:19:15.991Z,23.04
2018-09-20T04:19:48.041Z,23.01
2018-09-20T04:20:20.102Z,23.09
2018-09-20T04:20:52.176Z,23.06
2018-09-20T04:21:24.265Z,23.09
2018-09-20T04:21:56.339Z,23.03
2018-09-20T04:22:28.392Z,23.04
2018-09-20T04:23:00.479Z,23.06
2018-09-20T04:23:32.547Z,23.06
2018-09-20T04:24:04.604Z,23.01
2018-09-20T04:24:36.664Z,22.92
2018-09-20T04:25:08.724Z,23.04
2018-09-20T04:25:40.779Z,22.96
2018-09-20T04:26:12.900Z,22.99
2018-09-20T04:26:44.955Z,23
2018-09-20T04:27:16.982Z,23
2018-09-20T04:27:49.044Z,23.07
2018-09-20T04:28:21.061Z,23.03
2018-09-20T04:28:53.133Z,23.03
2018-09-20T04:29:25.200Z,23.06
2018-09-20T04:29:57.296Z,23.04
2018-09-20T04:30:29.373Z,23.04
2018-09-20T04:31:01.376Z,23.06
2018-09-20T04:31:33.446Z,23.01
2018-09-20T04:32:05.611Z,23.01
2018-09-20T04:32:37.679Z,23.04
2018-09-20T04:33:09.758Z,23.07
2018-09-20T04:33:41.920Z,22.96
2018-09-20T04:34:13.954Z,23.01
2018-09-20T04:34:45.997Z,23.04
2018-09-20T04:35:17.998Z,23.03
2018-09-20T04:35:50.144Z,23.04
2018-09-20T04:36:22.236Z,23.09
2018-09-20T04:36:54.298Z,23
2018-09-20T04:37:26.432Z,22.99
2018-09-20T04:37:58.499Z,23.06
2018-09-20T04:38:30.574Z,23.06
2018-09-20T04:39:02.654Z,23.04
2018-09-20T04:39:34.711Z,23.06
2018-09-20T04:40:06.780Z,22.92
2018-09-20T04:40:38.817Z,23
2018-09-20T04:41:10.863Z,23.06
2018-09-20T04:41:42.966Z,22.96
2018-09-20T04:42:15.004Z,23.06
2018-09-20T04:42:47.005Z,23.09
2018-09-20T04:43:19.052Z,23
2018-09-20T04:43:51.150Z,22.99
2018-09-20T04:44:23.222Z,23.03
2018-09-20T04:44:55.210Z,22.99
2018-09-20T04:45:27.230Z,23.03
2018-09-20T04:45:59.262Z,23.01
2018-09-20T04:46:31.292Z,22.92
2018-09-20T04:47:03.336Z,22.99
2018-09-20T04:47:35.367Z,23.07
2018-09-20T04:48:07.480Z,22.99
2018-09-20T04:48:39.628Z,22.97
2018-09-20T04:49:12.568Z,23.01
2018-09-20T04:49:44.604Z,23.04
2018-09-20T04:50:16.668Z,23.01
2018-09-20T04:50:48.682Z,22.94
2018-09-20T04:51:20.746Z,23
2018-09-20T04:51:52.965Z,22.99
2018-09-20T04:52:25.117Z,22.94
2018-09-20T04:52:57.175Z,23
2018-09-20T04:53:29.305Z,23.04
2018-09-20T04:54:01.390Z,22.97
2018-09-20T04:54:33.440Z,22.91
2018-09-20T04:55:05.517Z,22.97
2018-09-20T04:55:37.640Z,22.96
2018-09-20T04:56:09.755Z,22.94
2018-09-20T04:56:41.974Z,23
2018-09-20T04:57:14.033Z,22.91
2018-09-20T04:57:46.124Z,22.91
2018-09-20T04:58:18.193Z,23
2018-09-20T04:58:50.242Z,22.97
2018-09-20T04:59:22.274Z,23
2018-09-20T04:59:54.378Z,22.97
2018-09-20T05:00:26.557Z,22.91
2018-09-20T05:00:58.628Z,22.92
2018-09-20T05:01:30.758Z,22.97
2018-09-20T05:02:03.621Z,22.91
2018-09-20T05:02:35.674Z,22.99
2018-09-20T05:03:07.795Z,22.92
2018-09-20T05:03:39.849Z,22.94
2018-09-20T05:04:11.896Z,22.88
2018-09-20T05:04:43.971Z,22.94
2018-09-20T05:05:15.999Z,22.94
2018-09-20T05:05:48.079Z,22.89
2018-09-20T05:06:20.163Z,22.94
2018-09-20T05:06:52.243Z,22.99
2018-09-20T05:07:24.301Z,22.94
2018-09-20T05:07:56.360Z,22.91
2018-09-20T05:08:28.451Z,22.97
2018-09-20T05:09:00.517Z,22.88
2018-09-20T05:09:32.708Z,22.94
2018-09-20T05:10:04.722Z,22.89
2018-09-20T05:10:36.816Z,22.91
2018-09-20T05:11:08.884Z,22.94
2018-09-20T05:11:40.926Z,22.88
2018-09-20T05:12:13.004Z,22.88
2018-09-20T05:12:45.188Z,22.91
2018-09-20T05:13:17.223Z,22.86
2018-09-20T05:13:49.273Z,22.91
2018-09-20T05:14:21.346Z,22.97
2018-09-20T05:14:53.449Z,22.91
2018-09-20T05:15:25.489Z,22.91
2018-09-20T05:15:57.549Z,22.89
2018-09-20T05:16:29.601Z,22.89
2018-09-20T05:17:01.669Z,22.99
2018-09-20T05:17:33.823Z,22.92
2018-09-20T05:18:05.917Z,22.94
2018-09-20T05:18:37.957Z,22.94
2018-09-20T05:19:10.034Z,22.91
2018-09-20T05:19:42.219Z,22.94
2018-09-20T05:20:14.304Z,22.97
2018-09-20T05:20:46.462Z,22.91
2018-09-20T05:21:18.540Z,22.97
2018-09-20T05:21:50.624Z,22.91
2018-09-20T05:22:22.662Z,22.96
2018-09-20T05:22:54.734Z,22.91
2018-09-20T05:23:26.879Z,22.94
2018-09-20T05:23:58.975Z,22.96
2018-09-20T05:24:30.981Z,22.91
2018-09-20T05:25:03.024Z,22.91
2018-09-20T05:25:35.098Z,22.89
2018-09-20T05:26:07.160Z,22.99
2018-09-20T05:26:39.202Z,22.94
2018-09-20T05:27:11.269Z,22.94
2018-09-20T05:27:43.335Z,22.96
2018-09-20T05:28:16.111Z,22.97
2018-09-20T05:28:48.293Z,22.94
2018-09-20T05:29:20.320Z,22.91
2018-09-20T05:29:52.354Z,22.88
2018-09-20T05:30:24.470Z,22.91
2018-09-20T05:30:56.505Z,22.92
2018-09-20T05:31:28.541Z,22.94
2018-09-20T05:32:00.584Z,22.91
2018-09-20T05:32:33.390Z,22.89
2018-09-20T05:33:05.439Z,22.91
2018-09-20T05:33:37.613Z,22.91
2018-09-20T05:34:09.652Z,22.92
2018-09-20T05:34:41.711Z,22.88
2018-09-20T05:35:14.011Z,22.94
2018-09-20T05:35:46.144Z,22.97
2018-09-20T05:36:18.210Z,22.94
2018-09-20T05:36:50.264Z,22.96
2018-09-20T05:37:22.880Z,22.91
2018-09-20T05:37:54.888Z,22.88
2018-09-20T05:38:26.928Z,22.99
2018-09-20T05:38:58.921Z,22.94
2018-09-20T05:39:30.938Z,22.94
2018-09-20T05:40:02.951Z,22.88
2018-09-20T05:40:35.021Z,22.97
2018-09-20T05:41:07.118Z,22.91
2018-09-20T05:41:39.796Z,22.91
2018-09-20T05:42:11.854Z,22.91
2018-09-20T05:42:44.001Z,22.94
2018-09-20T05:43:16.121Z,22.97
2018-09-20T05:43:48.153Z,22.89
2018-09-20T05:44:20.197Z,22.96
2018-09-20T05:44:52.235Z,22.94
2018-09-20T05:45:24.279Z,22.91
2018-09-20T05:45:56.343Z,22.86
2018-09-20T05:46:28.484Z,22.86
2018-09-20T05:47:00.574Z,22.97
2018-09-20T05:47:32.655Z,22.97
2018-09-20T05:48:04.687Z,22.91
2018-09-20T05:48:36.717Z,22.91
2018-09-20T05:49:08.787Z,22.92
2018-09-20T05:49:40.848Z,22.89
2018-09-20T05:50:13.133Z,22.97
2018-09-20T05:50:45.228Z,22.94
2018-09-20T05:51:17.424Z,22.86
2018-09-20T05:51:49.509Z,22.96
2018-09-20T05:52:21.572Z,23.01
2018-09-20T05:52:53.599Z,22.91
2018-09-20T05:53:25.632Z,22.94
2018-09-20T05:53:57.723Z,22.96
2018-09-20T05:54:29.773Z,22.97
2018-09-20T05:55:01.820Z,23
2018-09-20T05:55:33.888Z,22.99
2018-09-20T05:56:05.918Z,22.97
2018-09-20T05:56:37.970Z,23
2018-09-20T05:57:10.167Z,22.99
2018-09-20T05:57:42.331Z,23.01
2018-09-20T05:58:14.376Z,22.99
2018-09-20T05:58:46.421Z,23.04
2018-09-20T05:59:18.627Z,22.99
2018-09-20T05:59:50.647Z,23.06
2018-09-20T06:00:22.733Z,23.03
2018-09-20T06:00:55.123Z,23.06
2018-09-20T06:01:27.276Z,23.04
2018-09-20T06:01:59.336Z,23
2018-09-20T06:02:31.428Z,23
2018-09-20T06:03:03.620Z,23.04
2018-09-20T06:03:35.719Z,23.07
2018-09-20T06:04:07.771Z,23.04
2018-09-20T06:04:39.834Z,23.06
2018-09-20T06:05:11.815Z,23.06
2018-09-20T06:05:43.890Z,23.04
2018-09-20T06:06:15.943Z,23.07
2018-09-20T06:06:48.015Z,23.04
2018-09-20T06:07:20.385Z,23.09
2018-09-20T06:07:52.406Z,23.14
2018-09-20T06:08:24.466Z,23.09
2018-09-20T06:08:56.518Z,23.06
2018-09-20T06:09:28.587Z,23.07
2018-09-20T06:10:00.635Z,23.07
2018-09-20T06:10:32.699Z,23.1
2018-09-20T06:11:04.783Z,23.14
2018-09-20T06:11:36.828Z,23.06
2018-09-20T06:12:09.038Z,23.18
2018-09-20T06:12:41.085Z,23.22
2018-09-20T06:13:13.171Z,23.22
2018-09-20T06:13:45.374Z,23.21
2018-09-20T06:14:17.449Z,23.25
2018-09-20T06:14:49.487Z,23.22
2018-09-20T06:15:21.557Z,23.22
2018-09-20T06:15:53.628Z,23.24
2018-09-20T06:16:25.659Z,23.28
2018-09-20T06:16:57.877Z,23.24
2018-09-20T06:17:29.905Z,23.22
2018-09-20T06:18:01.954Z,23.26
2018-09-20T06:18:34.100Z,23.26
2018-09-20T06:19:06.652Z,23.21
2018-09-20T06:19:38.783Z,23.24
2018-09-20T06:20:10.825Z,23.32
2018-09-20T06:20:43.018Z,23.26
2018-09-20T06:21:15.066Z,23.28
2018-09-20T06:21:47.118Z,23.32
2018-09-20T06:22:19.399Z,23.29
2018-09-20T06:22:51.652Z,23.35
2018-09-20T06:23:23.766Z,23.42
2018-09-20T06:23:55.948Z,23.28
2018-09-20T06:24:28.111Z,23.37
2018-09-20T06:25:00.195Z,23.41
2018-09-20T06:25:32.452Z,23.38
2018-09-20T06:26:04.776Z,23.29
2018-09-20T06:26:36.841Z,23.37
2018-09-20T06:27:08.848Z,23.4
2018-09-20T06:27:40.949Z,23.41
2018-09-20T06:28:13.029Z,23.29
2018-09-20T06:28:45.097Z,23.35
2018-09-20T06:29:17.150Z,23.5
2018-09-20T06:29:49.204Z,23.45
2018-09-20T06:30:21.382Z,23.44
2018-09-20T06:30:53.420Z,23.44
2018-09-20T06:31:25.487Z,23.48
2018-09-20T06:31:57.538Z,23.48
2018-09-20T06:32:29.550Z,23.59
2018-09-20T06:33:01.784Z,23.53
2018-09-20T06:33:33.848Z,23.59
2018-09-20T06:34:05.960Z,23.66
2018-09-20T06:34:38.043Z,23.57
2018-09-20T06:35:10.122Z,23.57
2018-09-20T06:35:42.182Z,23.62
2018-09-20T06:36:14.234Z,23.62
2018-09-20T06:36:47.155Z,23.72
2018-09-20T06:37:19.202Z,23.71
2018-09-20T06:37:51.276Z,23.63
2018-09-20T06:38:23.365Z,23.71
2018-09-20T06:38:55.436Z,23.7
2018-09-20T06:39:27.468Z,23.77
2018-09-20T06:39:59.621Z,23.77
2018-09-20T06:40:31.702Z,23.78
2018-09-20T06:41:04.614Z,23.75
2018-09-20T06:41:36.840Z,23.77
2018-09-20T06:42:08.928Z,23.81
2018-09-20T06:42:40.984Z,23.75
2018-09-20T06:43:13.073Z,23.9
2018-09-20T06:43:45.153Z,23.87
2018-09-20T06:44:17.339Z,23.9
2018-09-20T06:44:49.474Z,23.93
2018-09-20T06:45:21.526Z,23.94
2018-09-20T06:45:53.580Z,23.89
2018-09-20T06:46:25.703Z,23.97
2018-09-20T06:46:57.956Z,23.96
2018-09-20T06:47:30.146Z,23.92
2018-09-20T06:48:02.235Z,23.93
2018-09-20T06:48:34.430Z,24
2018-09-20T06:49:06.529Z,23.96
2018-09-20T06:49:38.644Z,24.03
2018-09-20T06:50:11.422Z,24.07
2018-09-20T06:50:43.566Z,24.03
2018-09-20T06:51:15.603Z,24.07
2018-09-20T06:51:47.960Z,24.07
2018-09-20T06:52:20.162Z,24.12
2018-09-20T06:52:52.214Z,24.11
2018-09-20T06:53:24.439Z,24.17
2018-09-20T06:53:56.789Z,24.19
2018-09-20T06:54:29.080Z,24.17
2018-09-20T06:55:01.316Z,24.19
2018-09-20T06:55:33.619Z,24.15